createdAt,value
2017-12-29T00:00:39.925Z,-0.9
2017-12-29T00:01:43.939Z,-1
2017-12-29T00:02:51.112Z,-0.9
2017-12-29T00:03:55.337Z,-1
2017-12-29T00:05:00.398Z,-0.9
2017-12-29T00:06:04.407Z,-0.9
2017-12-29T00:07:09.786Z,-0.9
2017-12-29T00:08:13.826Z,-1
2017-12-29T00:09:17.940Z,-1.1
2017-12-29T00:10:21.580Z,-1.1
2017-12-29T00:11:26.990Z,-1.1
2017-12-29T00:12:33.180Z,-1.1
2017-12-29T00:13:40.664Z,-1
2017-12-29T00:14:47.501Z,-1
2017-12-29T00:15:51.719Z,-1.1
2017-12-29T00:16:56.754Z,-1
2017-12-29T00:18:01.031Z,-1
2017-12-29T00:19:06.369Z,-1
2017-12-29T00:20:12.480Z,-0.9
2017-12-29T00:21:16.850Z,-0.9
2017-12-29T00:22:25.022Z,-0.9
2017-12-29T00:23:29.705Z,-0.9
2017-12-29T00:24:46.472Z,-1
2017-12-29T00:25:55.330Z,-1
2017-12-29T00:27:01.726Z,-1
2017-12-29T00:28:11.389Z,-1
2017-12-29T00:29:17.596Z,-1
2017-12-29T00:30:25.877Z,-0.9
2017-12-29T00:31:39.968Z,-0.9
2017-12-29T00:32:47.401Z,-1
2017-12-29T00:33:53.570Z,-1
2017-12-29T00:35:00.086Z,-1
2017-12-29T00:36:13.129Z,-1
2017-12-29T00:37:20.192Z,-1
2017-12-29T00:38:27.856Z,-0.9
2017-12-29T00:39:32.550Z,-1
2017-12-29T00:40:40.190Z,-1
2017-12-29T00:41:44.243Z,-0.9
2017-12-29T00:42:50.193Z,-1
2017-12-29T00:43:56.027Z,-1
2017-12-29T00:44:59.333Z,-0.9
2017-12-29T00:46:06.196Z,-1
2017-12-29T00:47:20.301Z,-1
2017-12-29T00:48:26.699Z,-1
2017-12-29T00:49:34.864Z,-1.1
2017-12-29T00:50:41.205Z,-1.1
2017-12-29T00:51:48.087Z,-1
2017-12-29T00:52:53.850Z,-1.1
2017-12-29T00:54:00.461Z,-1.1
2017-12-29T00:55:10.807Z,-1.1
2017-12-29T00:56:17.255Z,-1.1
2017-12-29T00:57:24.554Z,-1.1
2017-12-29T00:58:36.080Z,-1
2017-12-29T00:59:42.744Z,-1
2017-12-29T01:00:49.971Z,-1
2017-12-29T01:01:59.856Z,-1.1
2017-12-29T01:03:08.038Z,-1.1
2017-12-29T01:04:15.410Z,-1.1
2017-12-29T01:05:22.883Z,-1.1
2017-12-29T01:06:30.917Z,-1.1
2017-12-29T01:07:34.482Z,-1.1
2017-12-29T01:08:37.880Z,-1.1
2017-12-29T01:09:44.965Z,-1.1
2017-12-29T01:10:49.138Z,-1.1
2017-12-29T01:11:53.457Z,-1.1
2017-12-29T01:12:56.918Z,-1.1
2017-12-29T01:14:00.432Z,-1.1
2017-12-29T01:15:04.424Z,-1.1
2017-12-29T01:16:07.978Z,-1.1
2017-12-29T01:17:12.575Z,-1.1
2017-12-29T01:18:18.420Z,-1.1
2017-12-29T01:19:21.956Z,-1
2017-12-29T01:20:28.224Z,-1.1
2017-12-29T01:21:32.860Z,-1.1
2017-12-29T01:22:37.859Z,-1.1
2017-12-29T01:23:43.370Z,-1.1
2017-12-29T01:24:47.736Z,-1
2017-12-29T01:25:55.422Z,-1.2
2017-12-29T01:27:00.079Z,-1.2
2017-12-29T01:28:06.436Z,-1.2
2017-12-29T01:29:11.394Z,-1.3
2017-12-29T01:30:15.562Z,-1.2
2017-12-29T01:31:26.274Z,-1.2
2017-12-29T01:32:32.849Z,-1.3
2017-12-29T01:33:36.426Z,-1.3
2017-12-29T01:34:41.246Z,-1.2
2017-12-29T01:35:49.015Z,-1.2
2017-12-29T01:36:56.113Z,-1.3
2017-12-29T01:38:00.710Z,-1.2
2017-12-29T01:39:07.393Z,-1.2
2017-12-29T01:40:14.259Z,-1.2
2017-12-29T01:41:20.868Z,-1.2
2017-12-29T01:42:34.101Z,-1.2
2017-12-29T01:43:41.941Z,-1.3
2017-12-29T01:44:50.315Z,-1.3
2017-12-29T01:46:00.400Z,-1.3
2017-12-29T01:47:06.529Z,-1.3
2017-12-29T01:48:14.110Z,-1.3
2017-12-29T01:49:22.417Z,-1.2
2017-12-29T01:50:29.058Z,-1.2
2017-12-29T01:51:35.211Z,-1.3
2017-12-29T01:52:40.761Z,-1.3
2017-12-29T01:53:55.499Z,-1.3
2017-12-29T01:55:01.298Z,-1.3
2017-12-29T01:56:06.132Z,-1.4
2017-12-29T01:57:10.267Z,-1.3
2017-12-29T01:58:15.582Z,-1.4
2017-12-29T01:59:22.837Z,-1.4
2017-12-29T02:00:30.596Z,-1.4
2017-12-29T02:01:36.594Z,-1.3
2017-12-29T02:02:41.887Z,-1.4
2017-12-29T02:03:49.564Z,-1.4
2017-12-29T02:05:00.496Z,-1.4
2017-12-29T02:06:06.522Z,-1.4
2017-12-29T02:07:13.679Z,-1.4
2017-12-29T02:08:23.857Z,-1.4
2017-12-29T02:09:30.792Z,-1.5
2017-12-29T02:10:38.847Z,-1.5
2017-12-29T02:11:47.558Z,-1.5
2017-12-29T02:12:54.302Z,-1.5
2017-12-29T02:13:57.801Z,-1.5
2017-12-29T02:15:01.239Z,-1.6
2017-12-29T02:16:08.775Z,-1.6
2017-12-29T02:17:12.369Z,-1.7
2017-12-29T02:18:15.840Z,-1.5
2017-12-29T02:19:19.258Z,-1.5
2017-12-29T02:20:23.272Z,-1.5
2017-12-29T02:21:26.576Z,-1.5
2017-12-29T02:22:30.996Z,-1.5
2017-12-29T02:23:34.398Z,-1.5
2017-12-29T02:24:39.176Z,-1.6
2017-12-29T02:25:45.158Z,-1.6
2017-12-29T02:26:53.956Z,-1.6
2017-12-29T02:27:58.563Z,-1.6
2017-12-29T02:29:02.996Z,-1.5
2017-12-29T02:30:10.557Z,-1.5
2017-12-29T02:31:16.415Z,-1.5
2017-12-29T02:32:20.639Z,-1.5
2017-12-29T02:33:28.753Z,-1.6
2017-12-29T02:34:35.413Z,-1.5
2017-12-29T02:35:40.881Z,-1.6
2017-12-29T02:36:46.894Z,-1.5
2017-12-29T02:37:53.683Z,-1.6
2017-12-29T02:39:01.666Z,-1.6
2017-12-29T02:40:05.145Z,-1.6
2017-12-29T02:41:09.213Z,-1.6
2017-12-29T02:42:15.857Z,-1.6
2017-12-29T02:43:19.365Z,-1.6
2017-12-29T02:44:22.653Z,-1.6
2017-12-29T02:45:28.477Z,-1.6
2017-12-29T02:46:31.987Z,-1.5
2017-12-29T02:47:35.146Z,-1.6
2017-12-29T02:48:42.765Z,-1.6
2017-12-29T02:49:46.232Z,-1.6
2017-12-29T02:50:52.131Z,-1.6
2017-12-29T02:51:59.652Z,-1.6
2017-12-29T02:53:06.021Z,-1.6
2017-12-29T02:54:10.557Z,-1.6
2017-12-29T02:55:14.621Z,-1.7
2017-12-29T02:56:18.639Z,-1.7
2017-12-29T02:57:23.567Z,-1.7
2017-12-29T02:58:27.172Z,-1.6
2017-12-29T02:59:36.461Z,-1.7
2017-12-29T03:00:41.305Z,-1.7
2017-12-29T03:01:48.522Z,-1.7
2017-12-29T03:02:52.480Z,-1.7
2017-12-29T03:04:00.499Z,-1.7
2017-12-29T03:05:09.001Z,-1.7
2017-12-29T03:06:12.430Z,-1.7
2017-12-29T03:07:19.257Z,-1.7
2017-12-29T03:08:23.621Z,-1.6
2017-12-29T03:09:30.987Z,-1.6
2017-12-29T03:10:40.575Z,-1.7
2017-12-29T03:11:48.307Z,-1.7
2017-12-29T03:12:56.609Z,-1.7
2017-12-29T03:14:01.224Z,-1.7
2017-12-29T03:15:06.695Z,-1.6
2017-12-29T03:16:11.856Z,-1.7
2017-12-29T03:17:23.581Z,-1.6
2017-12-29T03:18:30.091Z,-1.6
2017-12-29T03:19:35.238Z,-1.6
2017-12-29T03:20:39.132Z,-1.7
2017-12-29T03:21:45.995Z,-1.7
2017-12-29T03:22:49.465Z,-1.7
2017-12-29T03:23:53.841Z,-1.7
2017-12-29T03:24:57.258Z,-1.6
2017-12-29T03:26:00.758Z,-1.7
2017-12-29T03:27:04.086Z,-1.6
2017-12-29T03:28:07.834Z,-1.6
2017-12-29T03:29:11.297Z,-1.6
2017-12-29T03:30:16.577Z,-1.6
2017-12-29T03:31:20.664Z,-1.7
2017-12-29T03:32:27.726Z,-1.7
2017-12-29T03:33:31.141Z,-1.7
2017-12-29T03:34:35.817Z,-1.7
2017-12-29T03:35:39.210Z,-1.7
2017-12-29T03:36:45.333Z,-1.7
2017-12-29T03:37:50.533Z,-1.7
2017-12-29T03:38:57.413Z,-1.7
2017-12-29T03:40:02.423Z,-1.7
2017-12-29T03:41:05.738Z,-1.7
2017-12-29T03:42:10.602Z,-1.7
2017-12-29T03:43:18.868Z,-1.7
2017-12-29T03:44:22.390Z,-1.8
2017-12-29T03:45:29.633Z,-1.8
2017-12-29T03:46:37.682Z,-1.7
2017-12-29T03:47:43.875Z,-1.8
2017-12-29T03:48:47.663Z,-1.7
2017-12-29T03:49:52.997Z,-1.7
2017-12-29T03:51:00.797Z,-1.8
2017-12-29T03:52:09.511Z,-1.7
2017-12-29T03:53:17.699Z,-1.7
2017-12-29T03:54:30.144Z,-1.7
2017-12-29T03:55:34.385Z,-1.7
2017-12-29T03:56:37.901Z,-1.7
2017-12-29T03:57:44.330Z,-1.7
2017-12-29T03:58:47.818Z,-1.7
2017-12-29T03:59:52.762Z,-1.7
2017-12-29T04:00:59.333Z,-1.7
2017-12-29T04:02:04.887Z,-1.7
2017-12-29T04:03:14.835Z,-1.7
2017-12-29T04:04:20.129Z,-1.7
2017-12-29T04:05:34.620Z,-1.7
2017-12-29T04:06:39.351Z,-1.8
2017-12-29T04:07:47.602Z,-1.8
2017-12-29T04:08:51.635Z,-1.8
2017-12-29T04:09:56.113Z,-1.7
2017-12-29T04:11:02.871Z,-1.7
2017-12-29T04:12:12.228Z,-1.7
2017-12-29T04:13:19.015Z,-1.7
2017-12-29T04:14:27.105Z,-1.6
2017-12-29T04:15:33.604Z,-1.7
2017-12-29T04:16:50.219Z,-1.7
2017-12-29T04:17:56.978Z,-1.8
2017-12-29T04:19:02.389Z,-1.8
2017-12-29T04:20:07.107Z,-1.8
2017-12-29T04:21:12.600Z,-1.7
2017-12-29T04:22:20.679Z,-1.7
2017-12-29T04:23:26.794Z,-1.6
2017-12-29T04:24:30.273Z,-1.6
2017-12-29T04:25:39.515Z,-1.6
2017-12-29T04:26:43.578Z,-1.6
2017-12-29T04:27:51.072Z,-1.5
2017-12-29T04:28:54.459Z,-1.6
2017-12-29T04:29:57.933Z,-1.6
2017-12-29T04:31:01.958Z,-1.5
2017-12-29T04:32:05.320Z,-1.6
2017-12-29T04:33:10.076Z,-1.6
2017-12-29T04:34:15.439Z,-1.5
2017-12-29T04:35:18.884Z,-1.6
2017-12-29T04:36:22.230Z,-1.6
2017-12-29T04:37:25.678Z,-1.7
2017-12-29T04:38:32.854Z,-1.7
2017-12-29T04:39:36.998Z,-1.7
2017-12-29T04:40:41.643Z,-1.7
2017-12-29T04:41:46.830Z,-1.7
2017-12-29T04:42:51.310Z,-1.7
2017-12-29T04:43:58.860Z,-1.7
2017-12-29T04:45:03.407Z,-1.7
2017-12-29T04:46:15.370Z,-1.7
2017-12-29T04:47:22.694Z,-1.8
2017-12-29T04:48:32.293Z,-1.8
2017-12-29T04:49:44.526Z,-1.8
2017-12-29T04:50:55.000Z,-1.9
2017-12-29T04:52:04.075Z,-1.9
2017-12-29T04:53:09.709Z,-1.9
2017-12-29T04:54:13.003Z,-1.9
2017-12-29T04:55:17.749Z,-1.9
2017-12-29T04:56:25.344Z,-2
2017-12-29T04:57:32.776Z,-2
2017-12-29T04:58:38.473Z,-2
2017-12-29T04:59:43.954Z,-2
2017-12-29T05:00:54.113Z,-1.9
2017-12-29T05:02:00.860Z,-1.9
2017-12-29T05:03:07.896Z,-2
2017-12-29T05:04:13.893Z,-2
2017-12-29T05:05:23.972Z,-2
2017-12-29T05:06:30.250Z,-2.1
2017-12-29T05:07:38.369Z,-2.1
2017-12-29T05:08:42.902Z,-2.2
2017-12-29T05:09:49.768Z,-2.2
2017-12-29T05:10:57.113Z,-2.2
2017-12-29T05:12:11.003Z,-2.1
2017-12-29T05:13:16.639Z,-2.2
2017-12-29T05:14:23.071Z,-2.2
2017-12-29T05:15:33.300Z,-2.2
2017-12-29T05:16:38.411Z,-2.2
2017-12-29T05:17:43.938Z,-2.1
2017-12-29T05:18:50.418Z,-2.1
2017-12-29T05:19:57.958Z,-2.1
2017-12-29T05:21:04.424Z,-2.1
2017-12-29T05:22:13.334Z,-2.1
2017-12-29T05:23:25.127Z,-2.2
2017-12-29T05:24:31.440Z,-2.2
2017-12-29T05:25:37.620Z,-2.2
2017-12-29T05:26:45.818Z,-2.2
2017-12-29T05:27:50.530Z,-2.2
2017-12-29T05:29:01.330Z,-2.2
2017-12-29T05:30:08.498Z,-2.2
2017-12-29T05:31:16.819Z,-2.2
2017-12-29T05:32:23.729Z,-2.3
2017-12-29T05:33:29.338Z,-2.2
2017-12-29T05:34:38.104Z,-2.2
2017-12-29T05:35:41.959Z,-2.3
2017-12-29T05:36:46.513Z,-2.3
2017-12-29T05:37:51.193Z,-2.2
2017-12-29T05:38:55.414Z,-2.2
2017-12-29T05:39:58.927Z,-2.2
2017-12-29T05:41:02.506Z,-2.3
2017-12-29T05:42:07.358Z,-2.2
2017-12-29T05:43:11.136Z,-2.2
2017-12-29T05:44:15.390Z,-2.2
2017-12-29T05:45:24.432Z,-2.2
2017-12-29T05:46:27.535Z,-2.2
2017-12-29T05:47:30.978Z,-2.3
2017-12-29T05:48:35.404Z,-2.2
2017-12-29T05:49:38.892Z,-2.2
2017-12-29T05:50:42.374Z,-2.3
2017-12-29T05:51:46.375Z,-2.2
2017-12-29T05:52:49.709Z,-2.3
2017-12-29T05:53:55.185Z,-2.2
2017-12-29T05:54:59.383Z,-2.3
2017-12-29T05:56:08.234Z,-2.3
2017-12-29T05:57:12.311Z,-2.3
2017-12-29T05:58:18.052Z,-2.3
2017-12-29T05:59:22.916Z,-2.3
2017-12-29T06:00:26.815Z,-2.3
2017-12-29T06:01:31.427Z,-2.3
2017-12-29T06:02:35.570Z,-2.2
2017-12-29T06:03:42.328Z,-2.2
2017-12-29T06:04:47.822Z,-2.2
2017-12-29T06:05:55.669Z,-2.2
2017-12-29T06:07:09.703Z,-2.3
2017-12-29T06:08:18.108Z,-2.2
2017-12-29T06:09:24.137Z,-2.3
2017-12-29T06:10:30.622Z,-2.3
2017-12-29T06:11:36.887Z,-2.2
2017-12-29T06:12:44.224Z,-2.2
2017-12-29T06:13:47.716Z,-2.2
2017-12-29T06:14:52.841Z,-2.2
2017-12-29T06:15:57.431Z,-2.3
2017-12-29T06:17:04.731Z,-2.3
2017-12-29T06:18:14.378Z,-2.4
2017-12-29T06:19:19.149Z,-2.4
2017-12-29T06:20:26.783Z,-2.4
2017-12-29T06:21:32.035Z,-2.3
2017-12-29T06:22:36.194Z,-2.3
2017-12-29T06:23:45.450Z,-2.4
2017-12-29T06:24:51.649Z,-2.4
2017-12-29T06:25:57.130Z,-2.4
2017-12-29T06:27:01.472Z,-2.4
2017-12-29T06:28:04.975Z,-2.4
2017-12-29T06:29:12.770Z,-2.4
2017-12-29T06:30:17.163Z,-2.4
2017-12-29T06:31:20.720Z,-2.3
2017-12-29T06:32:24.554Z,-2.4
2017-12-29T06:33:30.831Z,-2.3
2017-12-29T06:34:37.510Z,-2.3
2017-12-29T06:35:44.891Z,-2.2
2017-12-29T06:36:51.361Z,-2.1
2017-12-29T06:37:55.449Z,-2.2
2017-12-29T06:39:03.549Z,-2.2
2017-12-29T06:40:12.839Z,-2.2
2017-12-29T06:41:16.602Z,-2.2
2017-12-29T06:42:21.371Z,-2.3
2017-12-29T06:43:24.620Z,-2.2
2017-12-29T06:44:28.365Z,-2.3
2017-12-29T06:45:33.576Z,-2.3
2017-12-29T06:46:38.064Z,-2.3
2017-12-29T06:47:42.849Z,-2.4
2017-12-29T06:48:49.019Z,-2.4
2017-12-29T06:49:53.188Z,-2.4
2017-12-29T06:51:01.410Z,-2.4
2017-12-29T06:52:08.828Z,-2.4
2017-12-29T06:53:16.516Z,-2.4
2017-12-29T06:54:21.280Z,-2.4
2017-12-29T06:55:25.978Z,-2.5
2017-12-29T06:56:30.462Z,-2.5
2017-12-29T06:57:36.774Z,-2.5
2017-12-29T06:58:51.682Z,-2.5
2017-12-29T06:59:57.789Z,-2.4
2017-12-29T07:01:03.081Z,-2.5
2017-12-29T07:02:11.356Z,-2.5
2017-12-29T07:03:14.908Z,-2.5
2017-12-29T07:04:19.052Z,-2.5
2017-12-29T07:05:23.472Z,-2.6
2017-12-29T07:06:27.061Z,-2.5
2017-12-29T07:07:35.420Z,-2.5
2017-12-29T07:08:43.498Z,-2.5
2017-12-29T07:09:48.978Z,-2.5
2017-12-29T07:10:53.067Z,-2.5
2017-12-29T07:12:00.196Z,-2.5
2017-12-29T07:13:12.107Z,-2.5
2017-12-29T07:14:21.174Z,-2.5
2017-12-29T07:15:26.779Z,-2.6
2017-12-29T07:16:33.119Z,-2.6
2017-12-29T07:17:37.198Z,-2.5
2017-12-29T07:18:43.880Z,-2.5
2017-12-29T07:19:48.308Z,-2.5
2017-12-29T07:20:56.149Z,-2.5
2017-12-29T07:22:03.776Z,-2.5
2017-12-29T07:23:07.304Z,-2.5
2017-12-29T07:24:18.492Z,-2.5
2017-12-29T07:25:22.042Z,-2.6
2017-12-29T07:26:26.025Z,-2.5
2017-12-29T07:27:31.661Z,-2.6
2017-12-29T07:28:35.237Z,-2.6
2017-12-29T07:29:41.500Z,-2.6
2017-12-29T07:30:46.099Z,-2.7
2017-12-29T07:31:53.244Z,-2.7
2017-12-29T07:32:57.552Z,-2.7
2017-12-29T07:34:05.140Z,-2.6
2017-12-29T07:35:13.588Z,-2.6
2017-12-29T07:36:17.215Z,-2.6
2017-12-29T07:37:20.690Z,-2.6
2017-12-29T07:38:26.541Z,-2.6
2017-12-29T07:39:30.104Z,-2.6
2017-12-29T07:40:33.491Z,-2.5
2017-12-29T07:41:38.404Z,-2.5
2017-12-29T07:42:47.027Z,-2.5
2017-12-29T07:43:57.137Z,-2.5
2017-12-29T07:45:04.178Z,-2.5
2017-12-29T07:46:15.160Z,-2.5
2017-12-29T07:47:18.488Z,-2.5
2017-12-29T07:48:30.192Z,-2.5
2017-12-29T07:49:36.482Z,-2.5
2017-12-29T07:50:42.918Z,-2.5
2017-12-29T07:51:49.137Z,-2.6
2017-12-29T07:52:53.954Z,-2.5
2017-12-29T07:53:59.389Z,-2.5
2017-12-29T07:55:05.603Z,-2.6
2017-12-29T07:56:09.108Z,-2.5
2017-12-29T07:57:17.297Z,-2.6
2017-12-29T07:58:30.506Z,-2.5
2017-12-29T07:59:35.723Z,-2.4
2017-12-29T08:00:40.400Z,-2.4
2017-12-29T08:01:45.990Z,-2.3
2017-12-29T08:02:50.141Z,-2.3
2017-12-29T08:03:53.630Z,-2.3
2017-12-29T08:04:57.706Z,-2.3
2017-12-29T08:06:01.481Z,-2.3
2017-12-29T08:07:06.218Z,-2.2
2017-12-29T08:08:14.089Z,-2.2
2017-12-29T08:09:19.645Z,-2.2
2017-12-29T08:10:23.675Z,-2.5
2017-12-29T08:11:27.194Z,-2.6
2017-12-29T08:12:30.584Z,-2.9
2017-12-29T08:13:33.673Z,-3
2017-12-29T08:14:37.161Z,-2.9
2017-12-29T08:15:40.419Z,-2.8
2017-12-29T08:16:43.896Z,-2.8
2017-12-29T08:17:47.268Z,-2.8
2017-12-29T08:18:54.254Z,-2.9
2017-12-29T08:19:57.675Z,-2.8
2017-12-29T08:21:01.107Z,-2.8
2017-12-29T08:22:04.662Z,-2.9
2017-12-29T08:23:08.078Z,-2.9
2017-12-29T08:24:11.492Z,-2.8
2017-12-29T08:25:14.965Z,-2.7
2017-12-29T08:26:18.636Z,-2.6
2017-12-29T08:27:21.856Z,-2.5
2017-12-29T08:28:26.129Z,-2.3
2017-12-29T08:29:32.369Z,-2.2
2017-12-29T08:30:46.641Z,-2.2
2017-12-29T08:31:50.094Z,-2.1
2017-12-29T08:32:56.205Z,-2.1
2017-12-29T08:34:00.404Z,-2.1
2017-12-29T08:35:04.401Z,-2.1
2017-12-29T08:36:10.151Z,-2
2017-12-29T08:37:14.461Z,-2
2017-12-29T08:38:17.949Z,-2
2017-12-29T08:39:21.160Z,-2
2017-12-29T08:40:28.812Z,-2
2017-12-29T08:41:35.431Z,-2
2017-12-29T08:42:41.140Z,-1.9
2017-12-29T08:43:56.078Z,-1.9
2017-12-29T08:45:19.389Z,-1.9
2017-12-29T08:46:25.760Z,-1.8
2017-12-29T08:47:29.471Z,-1.9
2017-12-29T08:48:34.232Z,-1.9
2017-12-29T08:49:38.697Z,-1.9
2017-12-29T08:50:52.760Z,-1.9
2017-12-29T08:52:22.324Z,-1.8
2017-12-29T08:53:25.796Z,-1.8
2017-12-29T08:54:29.876Z,-1.7
2017-12-29T08:55:37.261Z,-1.7
2017-12-29T08:56:41.412Z,-1.7
2017-12-29T08:57:54.718Z,-1.6
2017-12-29T08:59:03.213Z,-1.6
2017-12-29T09:00:06.699Z,-1.5
2017-12-29T09:01:10.486Z,-1.4
2017-12-29T09:02:13.950Z,-1.3
2017-12-29T09:03:22.508Z,-1.3
2017-12-29T09:04:25.951Z,-1.2
2017-12-29T09:05:31.574Z,-1.2
2017-12-29T09:06:35.541Z,-1.2
2017-12-29T09:07:41.334Z,-1.1
2017-12-29T09:08:46.286Z,-1
2017-12-29T09:09:52.308Z,-1
2017-12-29T09:10:58.078Z,-0.9
2017-12-29T09:12:03.652Z,-0.9
2017-12-29T09:13:07.074Z,-0.8
2017-12-29T09:14:19.843Z,-0.7
2017-12-29T09:15:27.762Z,-0.8
2017-12-29T09:16:35.062Z,-1
2017-12-29T09:17:41.061Z,-1.3
2017-12-29T09:18:46.454Z,-1.3
2017-12-29T09:19:52.882Z,-1.1
2017-12-29T09:20:57.066Z,-0.9
2017-12-29T09:22:03.174Z,-0.7
2017-12-29T09:23:09.911Z,-0.6
2017-12-29T09:24:14.368Z,-0.5
2017-12-29T09:25:26.594Z,-0.5
2017-12-29T09:26:34.613Z,-0.4
2017-12-29T09:27:40.410Z,-0.2
2017-12-29T09:28:47.824Z,-0.2
2017-12-29T09:29:53.071Z,-0.1
2017-12-29T09:30:58.043Z,-0.1
2017-12-29T09:32:01.599Z,0
2017-12-29T09:33:08.091Z,0.1
2017-12-29T09:34:13.764Z,0.1
2017-12-29T09:35:18.902Z,0.1
2017-12-29T09:36:28.519Z,0.2
2017-12-29T09:37:35.501Z,0.2
2017-12-29T09:38:42.293Z,0.3
2017-12-29T09:39:51.611Z,0.3
2017-12-29T09:40:55.220Z,0.3
2017-12-29T09:41:59.370Z,0.4
2017-12-29T09:43:04.778Z,0.5
2017-12-29T09:44:13.333Z,0.5
2017-12-29T09:45:21.537Z,0.5
2017-12-29T09:46:29.925Z,0.5
2017-12-29T09:47:49.586Z,0.6
2017-12-29T09:48:59.767Z,0.6
2017-12-29T09:50:08.453Z,0.6
2017-12-29T09:51:14.266Z,0.7
2017-12-29T09:52:20.834Z,0.7
2017-12-29T09:53:28.747Z,0.7
2017-12-29T09:54:38.942Z,0.8
2017-12-29T09:55:48.005Z,0.7
2017-12-29T09:56:53.464Z,0.7
2017-12-29T09:57:59.323Z,0.7
2017-12-29T09:59:15.030Z,0.7
2017-12-29T10:00:23.274Z,0.7
2017-12-29T14:31:03.652Z,0.1
2017-12-29T14:32:14.655Z,0
2017-12-29T14:33:26.731Z,-0.1
2017-12-29T14:34:35.192Z,-0.1
2017-12-29T14:35:40.072Z,-0.1
2017-12-29T14:36:50.560Z,-0.1
2017-12-29T14:37:57.625Z,-0.1
2017-12-29T14:39:15.092Z,-0.1
2017-12-29T14:40:24.736Z,-0.1
2017-12-29T14:41:36.841Z,-0.2
2017-12-29T14:42:45.601Z,-0.2
2017-12-29T14:43:52.390Z,-0.2
2017-12-29T14:45:03.747Z,-0.2
2017-12-29T14:46:10.273Z,-0.2
2017-12-29T14:47:15.861Z,-0.3
2017-12-29T14:48:26.344Z,-0.3
2017-12-29T14:49:36.626Z,-0.3
2017-12-29T14:50:52.154Z,-0.3
2017-12-29T14:51:57.813Z,-0.3
2017-12-29T14:53:08.221Z,-0.3
2017-12-29T14:54:18.261Z,-0.3
2017-12-29T14:55:29.204Z,-0.4
2017-12-29T14:56:38.563Z,-0.4
2017-12-29T14:57:47.609Z,-0.4
2017-12-29T14:58:58.358Z,-0.4
2017-12-29T15:00:02.532Z,-0.4
2017-12-29T15:01:12.941Z,-0.4
2017-12-29T15:02:25.169Z,-0.5
2017-12-29T15:03:30.497Z,-0.5
2017-12-29T15:04:40.610Z,-0.6
2017-12-29T15:05:47.356Z,-0.6
2017-12-29T15:07:04.288Z,-0.6
2017-12-29T15:08:10.103Z,-0.7
2017-12-29T15:09:16.445Z,-0.6
2017-12-29T15:10:23.847Z,-0.6
2017-12-29T15:11:31.221Z,-0.7
2017-12-29T15:12:37.233Z,-0.7
2017-12-29T15:13:54.336Z,-0.7
2017-12-29T15:15:04.040Z,-0.8
2017-12-29T15:16:18.147Z,-0.8
2017-12-29T15:17:30.016Z,-0.7
2017-12-29T15:18:38.354Z,-0.7
2017-12-29T15:19:49.924Z,-0.8
2017-12-29T15:21:01.797Z,-0.7
2017-12-29T15:22:10.347Z,-0.7
2017-12-29T15:23:20.917Z,-0.7
2017-12-29T15:24:29.820Z,-0.8
